Buckhorn, New Mexico
Current Conditions -  °F | °C
As of 12:15 AM on Friday 28 Nov 2014 (Local Time) from KSVC Reporting Station
Clear Clear  
Wind Chill: -2°   Ceiling: Unl
Heat Index:   Visibility: 10mi
Dew Point: -7°   Wind: 10mph
Humidity: 52%   Direction: 10°N
Pressure: 30.34"   Gusts: NA
Location:  33.03°N, 108.71°W
Report Text: KSVC 280715Z AUTO 01009KT 10SM CLR 02/M07 A3034 RMK AO2
Loading
Personal Weather Stations






























Interactive Weather Map New forecast layout! Learn more

10-Day Weather Forecast

Advertisements
Track Severe Weather on mobile